Time;durP1;ratioP1;P1;durP2;ratioP2;P2;SDS_P1;SDS_P2;PMS_P1;PMS_P2;Temp;Humidity;BMP_temperature;BMP_pressure;BME280_temperature;BME280_humidity;BME280_pressure;Samples;Min_cycle;Max_cycle;Signal;HPM_P1;HPM_P2
2020/12/14 00:00:39;;;;;;;6.33;5.73;;;4.80;96.50;;;;;;5022487;28;20237;-88
2020/12/14 00:03:06;;;;;;;5.63;5.13;;;4.90;96.60;;;;;;5024001;28;20237;-88
2020/12/14 00:05:32;;;;;;;7.37;5.50;;;4.90;96.50;;;;;;5021738;28;20671;-88
2020/12/14 00:07:59;;;;;;;5.50;5.00;;;5.00;96.30;;;;;;5017697;28;20223;-88
2020/12/14 00:10:26;;;;;;;5.53;5.03;;;5.00;96.20;;;;;;5021373;28;20211;-88
2020/12/14 00:12:54;;;;;;;5.60;5.10;;;4.90;96.20;;;;;;5016304;28;20709;-89
2020/12/14 00:15:21;;;;;;;5.37;4.70;;;5.00;96.30;;;;;;5025387;28;20210;-88
2020/12/14 00:17:47;;;;;;;5.80;5.23;;;5.00;96.30;;;;;;5023915;28;20238;-88
2020/12/14 00:20:13;;;;;;;5.43;4.93;;;5.10;96.20;;;;;;5024569;28;20227;-88
2020/12/14 00:22:40;;;;;;;5.37;4.87;;;5.20;96.40;;;;;;5020423;28;20228;-88
2020/12/14 00:25:06;;;;;;;6.40;4.60;;;5.20;95.90;;;;;;5021678;28;20220;-88
2020/12/14 00:27:33;;;;;;;5.63;4.63;;;5.10;95.70;;;;;;5025429;28;20276;-88
2020/12/14 00:30:00;;;;;;;4.93;4.43;;;5.20;96.00;;;;;;5025116;28;20210;-88
2020/12/14 00:32:26;;;;;;;4.50;4.10;;;5.20;96.00;;;;;;5027220;28;20261;-88
2020/12/14 00:34:53;;;;;;;6.57;5.37;;;5.20;95.80;;;;;;5024417;28;20214;-87
2020/12/14 00:37:20;;;;;;;5.03;4.53;;;5.10;96.10;;;;;;5027833;28;20309;-88
2020/12/14 00:39:46;;;;;;;7.47;5.20;;;5.10;95.60;;;;;;5024069;28;20213;-88
2020/12/14 00:42:13;;;;;;;4.70;4.30;;;5.20;96.00;;;;;;5029772;28;20252;-88
2020/12/14 00:44:40;;;;;;;6.17;5.30;;;5.50;96.20;;;;;;5027922;28;20214;-87
2020/12/14 00:47:06;;;;;;;4.60;4.20;;;5.40;95.20;;;;;;5022714;28;20231;-88
2020/12/14 00:49:33;;;;;;;6.20;4.70;;;5.30;95.10;;;;;;5025903;28;20294;-87
2020/12/14 00:52:04;;;;;;;7.13;5.23;;;5.40;95.20;;;;;;5023268;28;20225;-88
2020/12/14 00:54:30;;;;;;;7.70;4.90;;;5.40;95.60;;;;;;5023275;28;20277;-88
2020/12/14 00:56:57;;;;;;;33.70;20.67;;;5.50;96.30;;;;;;5022260;28;20218;-88
2020/12/14 00:59:23;;;;;;;17.37;11.03;;;5.50;96.20;;;;;;5029387;28;20242;-87
2020/12/14 01:01:51;;;;;;;7.43;5.83;;;5.70;96.30;;;;;;5024988;28;20705;-87
2020/12/14 01:04:18;;;;;;;14.50;7.23;;;5.60;95.20;;;;;;5028931;28;20207;-88
2020/12/14 01:06:44;;;;;;;7.03;5.60;;;5.70;96.20;;;;;;5021826;28;20228;-88
2020/12/14 01:09:11;;;;;;;6.53;5.07;;;5.70;95.50;;;;;;5032479;28;20619;-88
2020/12/14 01:11:37;;;;;;;11.53;7.43;;;5.40;95.10;;;;;;5025803;28;20222;-89
2020/12/14 01:14:03;;;;;;;5.77;5.07;;;5.50;96.20;;;;;;5023516;28;20302;-88
2020/12/14 01:16:30;;;;;;;10.27;7.23;;;5.70;95.60;;;;;;5024019;28;20550;-88
2020/12/14 01:18:57;;;;;;;9.23;6.20;;;5.60;96.20;;;;;;5028482;28;20220;-88
2020/12/14 01:21:24;;;;;;;5.60;4.97;;;5.90;96.80;;;;;;5023012;28;20203;-88
2020/12/14 01:23:51;;;;;;;5.13;4.63;;;5.90;95.30;;;;;;5028053;28;20220;-88
2020/12/14 01:26:18;;;;;;;5.23;4.73;;;5.70;94.70;;;;;;5029034;28;20206;-88
2020/12/14 01:28:44;;;;;;;5.73;5.13;;;5.50;94.60;;;;;;5026568;28;20210;-88
2020/12/14 01:31:11;;;;;;;5.23;4.63;;;5.40;95.10;;;;;;5028910;28;20842;-88
2020/12/14 01:33:37;;;;;;;5.50;4.97;;;5.30;95.10;;;;;;5025828;28;20230;-88
2020/12/14 01:36:04;;;;;;;73.67;47.63;;;5.30;95.10;;;;;;5029496;28;20203;-88
2020/12/14 01:38:31;;;;;;;58.07;39.40;;;5.40;96.90;;;;;;5027342;28;20226;-88
2020/12/14 01:40:57;;;;;;;7.27;6.20;;;5.60;95.50;;;;;;5028838;28;20674;-88
2020/12/14 01:43:25;;;;;;;36.60;24.80;;;5.60;95.20;;;;;;5028722;28;20222;-88
2020/12/14 01:45:52;;;;;;;27.03;18.03;;;5.50;95.20;;;;;;5032534;28;20258;-88
2020/12/14 01:48:22;;;;;;;5.73;4.90;;;5.60;95.20;;;;;;5024513;28;20228;-87
2020/12/14 01:50:49;;;;;;;16.87;10.87;;;5.50;94.70;;;;;;5026464;28;20211;-87
2020/12/14 01:53:18;;;;;;;5.23;4.73;;;5.60;95.50;;;;;;5029939;28;20265;-88
2020/12/14 01:55:47;;;;;;;29.13;18.63;;;5.40;94.60;;;;;;5027236;28;20199;-87
2020/12/14 01:58:13;;;;;;;6.63;5.70;;;5.40;95.10;;;;;;5023239;28;20231;-88
2020/12/14 02:00:40;;;;;;;7.63;6.07;;;5.20;95.10;;;;;;5024727;28;20218;-87
2020/12/14 02:03:06;;;;;;;18.07;13.80;;;5.10;95.10;;;;;;5024850;28;20226;-88
2020/12/14 02:05:33;;;;;;;36.80;25.97;;;5.20;96.20;;;;;;5027896;28;20199;-87
2020/12/14 02:07:59;;;;;;;7.23;6.13;;;5.20;96.30;;;;;;5025461;28;20225;-88
2020/12/14 02:10:26;;;;;;;7.67;6.60;;;5.10;95.10;;;;;;5024651;28;20670;-87
2020/12/14 02:12:53;;;;;;;36.70;25.17;;;5.10;95.10;;;;;;5022485;28;20594;-88
2020/12/14 02:15:19;;;;;;;7.77;6.53;;;5.00;95.10;;;;;;5027024;28;20213;-88
2020/12/14 02:17:45;;;;;;;8.60;7.00;;;4.90;95.00;;;;;;5022394;28;20217;-88
2020/12/14 02:20:12;;;;;;;9.80;8.50;;;4.90;95.50;;;;;;5022163;28;20220;-88
2020/12/14 02:22:38;;;;;;;12.60;9.60;;;4.80;95.40;;;;;;5022456;28;20225;-87
2020/12/14 02:25:07;;;;;;;9.50;8.10;;;4.60;95.60;;;;;;5018342;28;20199;-88
2020/12/14 02:27:35;;;;;;;18.40;13.37;;;4.50;95.80;;;;;;5030493;28;20225;-88
2020/12/14 02:30:03;;;;;;;14.73;11.00;;;4.40;96.40;;;;;;5024398;28;20207;-88
2020/12/14 02:32:30;;;;;;;11.27;9.17;;;4.40;96.90;;;;;;5023132;28;20238;-88
2020/12/14 02:34:57;;;;;;;12.97;9.67;;;4.40;96.60;;;;;;5026207;28;20210;-87
2020/12/14 02:37:25;;;;;;;9.17;8.10;;;4.40;96.90;;;;;;5019703;28;20246;-88
2020/12/14 02:39:51;;;;;;;9.20;7.77;;;4.30;96.40;;;;;;5021023;28;20230;-88
2020/12/14 02:42:21;;;;;;;37.83;26.73;;;4.20;96.20;;;;;;5021952;28;20225;-88
2020/12/14 02:44:48;;;;;;;10.23;8.20;;;4.20;96.70;;;;;;5026698;28;20207;-88
2020/12/14 02:47:15;;;;;;;11.80;9.40;;;4.00;96.30;;;;;;5023655;28;20233;-88
2020/12/14 02:49:42;;;;;;;10.50;8.47;;;4.00;96.80;;;;;;5024372;28;20212;-88
2020/12/14 02:52:10;;;;;;;9.27;7.80;;;3.90;96.40;;;;;;5024914;28;20226;-88
2020/12/14 02:54:39;;;;;;;9.37;7.87;;;3.90;96.30;;;;;;5021245;28;20227;-88
2020/12/14 02:57:05;;;;;;;9.77;7.90;;;3.90;96.80;;;;;;5018347;28;20227;-87
2020/12/14 02:59:32;;;;;;;11.03;8.77;;;3.70;96.30;;;;;;5026520;28;20599;-88
2020/12/14 03:01:59;;;;;;;18.20;12.97;;;3.70;97.00;;;;;;5023709;28;20230;-88
2020/12/14 03:04:25;;;;;;;12.37;9.77;;;3.90;97.60;;;;;;5018479;28;20210;-88
2020/12/14 03:06:52;;;;;;;13.00;9.87;;;3.90;96.80;;;;;;5022242;28;20238;-87
2020/12/14 03:09:20;;;;;;;11.63;8.83;;;3.80;96.40;;;;;;5021131;28;20416;-87
2020/12/14 03:11:47;;;;;;;11.23;9.20;;;3.70;96.30;;;;;;5024166;28;20218;-87
2020/12/14 03:14:13;;;;;;;13.60;8.83;;;3.80;97.10;;;;;;5021655;28;20226;-87
2020/12/14 03:16:41;;;;;;;10.97;8.47;;;3.80;96.60;;;;;;5023512;28;20221;-88
2020/12/14 03:19:08;;;;;;;12.80;9.80;;;3.80;96.50;;;;;;5023303;28;20217;-87
2020/12/14 03:21:34;;;;;;;12.47;9.77;;;3.80;96.80;;;;;;5016655;28;20235;-88
2020/12/14 03:24:01;;;;;;;13.87;9.43;;;3.70;96.20;;;;;;5045013;28;20228;-87
2020/12/14 03:26:28;;;;;;;10.80;8.40;;;3.60;96.30;;;;;;5026043;28;20198;-85
2020/12/14 03:28:54;;;;;;;10.53;7.77;;;3.60;96.30;;;;;;5028427;28;20214;-87
2020/12/14 03:31:21;;;;;;;10.37;8.70;;;3.50;96.00;;;;;;5025447;28;20202;-87
2020/12/14 03:33:50;;;;;;;11.77;8.60;;;3.50;96.50;;;;;;5027053;28;20223;-88
2020/12/14 03:36:16;;;;;;;9.43;7.93;;;3.40;96.80;;;;;;5023036;28;20200;-87
2020/12/14 03:38:43;;;;;;;11.53;8.40;;;3.30;96.50;;;;;;5027445;28;20210;-87
2020/12/14 03:41:09;;;;;;;16.67;13.33;;;3.20;96.60;;;;;;5027993;28;20206;-87
2020/12/14 03:43:35;;;;;;;14.63;10.30;;;3.20;96.80;;;;;;5025253;28;20234;-87
2020/12/14 03:46:01;;;;;;;11.50;9.00;;;3.10;96.60;;;;;;5026258;28;20214;-87
2020/12/14 03:48:28;;;;;;;11.00;7.97;;;3.10;97.20;;;;;;5023735;28;20230;-87
2020/12/14 03:50:55;;;;;;;11.43;9.20;;;3.20;97.20;;;;;;5020342;28;20891;-87
2020/12/14 03:53:22;;;;;;;9.37;7.20;;;3.30;97.50;;;;;;5019241;28;20242;-87
2020/12/14 03:55:51;;;;;;;8.73;7.00;;;3.30;95.90;;;;;;5024991;28;20206;-87
2020/12/14 03:58:17;;;;;;;8.20;6.93;;;3.20;95.20;;;;;;5024809;28;20229;-87
2020/12/14 04:00:46;;;;;;;29.27;8.17;;;3.00;95.40;;;;;;5024436;28;20223;-87
2020/12/14 04:03:12;;;;;;;10.60;7.17;;;2.90;95.60;;;;;;5018500;28;20300;-87
2020/12/14 04:05:38;;;;;;;9.17;7.73;;;2.70;95.70;;;;;;5022647;28;20203;-87
2020/12/14 04:08:06;;;;;;;10.20;6.97;;;2.80;97.10;;;;;;5025579;28;20693;-87
2020/12/14 04:10:35;;;;;;;16.80;7.07;;;2.90;96.80;;;;;;5026032;28;20205;-87
2020/12/14 04:13:02;;;;;;;8.83;7.00;;;2.90;96.30;;;;;;5019637;28;20223;-87
2020/12/14 04:15:28;;;;;;;8.70;6.90;;;2.90;96.30;;;;;;5022000;28;20195;-87
2020/12/14 04:17:55;;;;;;;20.00;7.00;;;2.80;96.20;;;;;;5019541;28;20692;-86
2020/12/14 04:20:21;;;;;;;8.80;6.30;;;2.70;95.80;;;;;;5036236;28;20571;-86
2020/12/14 04:22:47;;;;;;;22.27;7.17;;;2.70;96.20;;;;;;5026884;28;20248;-87
2020/12/14 04:25:15;;;;;;;17.27;6.80;;;2.60;95.90;;;;;;5029886;28;20658;-87
2020/12/14 04:27:42;;;;;;;12.70;6.60;;;2.60;96.50;;;;;;5034784;28;20249;-87
2020/12/14 04:30:08;;;;;;;47.53;7.60;;;2.60;96.80;;;;;;5028231;28;20211;-87
2020/12/14 04:32:35;;;;;;;9.47;6.73;;;2.50;95.90;;;;;;5027316;28;20590;-87
2020/12/14 04:35:01;;;;;;;7.77;6.00;;;2.60;96.70;;;;;;5031265;28;20218;-87
2020/12/14 04:37:27;;;;;;;18.70;6.70;;;2.60;96.30;;;;;;5030484;28;20229;-87
2020/12/14 04:39:54;;;;;;;16.97;6.87;;;2.60;95.90;;;;;;5026949;28;20210;-87
2020/12/14 04:42:21;;;;;;;24.40;6.90;;;2.50;96.20;;;;;;5029569;28;20230;-87
2020/12/14 04:44:48;;;;;;;8.23;5.87;;;2.60;96.90;;;;;;5031061;28;20549;-87
2020/12/14 04:47:14;;;;;;;8.90;6.00;;;2.60;96.70;;;;;;5029344;28;21191;-87
2020/12/14 04:49:41;;;;;;;9.87;6.27;;;2.60;96.10;;;;;;5036458;28;20649;-86
2020/12/14 04:52:09;;;;;;;80.17;8.67;;;2.60;96.30;;;;;;5027931;28;20234;-87
2020/12/14 04:54:35;;;;;;;8.23;5.97;;;2.50;95.60;;;;;;5030054;28;20693;-87
2020/12/14 04:57:07;;;;;;;26.30;6.40;;;2.50;95.70;;;;;;5028354;28;20224;-86
2020/12/14 04:59:34;;;;;;;8.40;5.83;;;2.20;95.70;;;;;;5026667;28;20696;-86
2020/12/14 05:02:08;;;;;;;7.50;5.60;;;2.30;97.10;;;;;;5024642;28;20218;-87
2020/12/14 05:04:35;;;;;;;7.30;5.73;;;2.50;97.00;;;;;;5028418;28;20202;-87
2020/12/14 05:07:01;;;;;;;10.73;6.17;;;2.50;96.60;;;;;;5023221;28;20580;-87
2020/12/14 05:09:27;;;;;;;6.97;5.77;;;2.50;96.30;;;;;;5027915;28;20595;-87
2020/12/14 05:11:54;;;;;;;7.37;5.87;;;2.40;95.90;;;;;;5020285;28;20226;-87
2020/12/14 05:14:22;;;;;;;18.20;6.20;;;2.40;96.90;;;;;;5028463;28;20237;-87
2020/12/14 05:16:51;;;;;;;8.43;5.97;;;2.40;96.20;;;;;;5024294;28;20227;-87
2020/12/14 05:19:29;;;;;;;6.63;5.23;;;2.30;95.90;;;;;;5033846;28;20666;-87
2020/12/14 05:21:58;;;;;;;6.73;5.43;;;2.30;96.40;;;;;;5024101;28;20233;-87
2020/12/14 05:24:26;;;;;;;7.13;5.30;;;2.20;96.30;;;;;;5032888;28;20202;-87
2020/12/14 05:26:54;;;;;;;5.47;4.90;;;2.20;95.90;;;;;;5029287;28;20230;-87
2020/12/14 05:29:27;;;;;;;5.63;4.73;;;2.30;95.90;;;;;;5032113;28;20281;-88
2020/12/14 05:32:02;;;;;;;5.80;5.20;;;2.30;96.20;;;;;;5024702;28;20234;-89
2020/12/14 05:34:30;;;;;;;5.93;5.20;;;2.20;95.80;;;;;;5028431;28;20218;-86
2020/12/14 05:36:58;;;;;;;6.50;5.50;;;2.10;96.00;;;;;;5025162;28;20591;-86
2020/12/14 05:39:28;;;;;;;7.37;5.90;;;2.10;96.10;;;;;;5028964;28;20213;-86
2020/12/14 05:42:08;;;;;;;5.40;4.80;;;2.00;95.70;;;;;;5024330;28;20230;-88
2020/12/14 05:44:34;;;;;;;6.37;5.23;;;2.00;95.70;;;;;;5033726;28;20214;-84
2020/12/14 05:47:01;;;;;;;6.17;5.57;;;1.80;96.00;;;;;;5026124;28;20218;-86
2020/12/14 05:49:27;;;;;;;6.90;6.10;;;1.80;96.30;;;;;;5025834;28;20208;-86
2020/12/14 05:52:00;;;;;;;6.63;5.93;;;1.90;96.90;;;;;;5027385;28;20684;-90
2020/12/14 05:54:35;;;;;;;6.97;6.20;;;1.90;96.70;;;;;;5021930;28;20276;-87
2020/12/14 05:57:04;;;;;;;6.60;5.50;;;2.00;96.80;;;;;;5017503;28;20692;-88
2020/12/14 05:59:34;;;;;;;6.13;5.43;;;2.10;96.00;;;;;;5021802;28;20225;-84
2020/12/14 06:02:04;;;;;;;5.83;5.23;;;2.10;96.00;;;;;;5024910;28;20229;-84
2020/12/14 06:04:33;;;;;;;6.47;5.70;;;2.00;95.50;;;;;;5029422;28;20210;-89
2020/12/14 06:07:03;;;;;;;6.47;5.50;;;2.00;96.30;;;;;;5023949;28;20232;-85
2020/12/14 06:09:36;;;;;;;7.17;5.93;;;1.80;96.10;;;;;;5026980;28;20206;-90
2020/12/14 06:12:05;;;;;;;6.30;5.57;;;2.10;97.10;;;;;;5026918;28;20222;-89
2020/12/14 06:14:40;;;;;;;6.10;5.20;;;1.90;96.30;;;;;;5033568;28;20710;-89
2020/12/14 06:17:11;;;;;;;7.30;5.97;;;2.00;96.70;;;;;;5022388;28;20232;-89
2020/12/14 06:19:38;;;;;;;6.00;5.40;;;2.20;97.00;;;;;;5024366;28;20252;-90
2020/12/14 06:22:08;;;;;;;6.23;5.43;;;2.00;96.00;;;;;;5029327;28;20727;-91
2020/12/14 06:24:35;;;;;;;7.43;5.10;;;2.20;96.00;;;;;;5028647;28;20190;-90
2020/12/14 06:27:03;;;;;;;7.10;5.87;;;2.10;95.40;;;;;;5021400;28;20226;-91
2020/12/14 06:29:31;;;;;;;6.87;5.10;;;2.10;95.10;;;;;;5024462;28;20206;-85
2020/12/14 06:32:37;;;;;;;6.67;5.40;;;2.00;95.20;;;;;;5027999;28;20684;-85
2020/12/14 06:35:05;;;;;;;5.93;5.03;;;1.90;95.90;;;;;;5031504;28;20232;-84
2020/12/14 06:37:48;;;;;;;6.10;5.20;;;1.90;96.00;;;;;;5028867;28;20229;-85
2020/12/14 06:40:15;;;;;;;6.50;5.30;;;1.90;96.10;;;;;;5029566;28;20202;-85
2020/12/14 06:42:41;;;;;;;6.63;5.20;;;1.80;96.00;;;;;;5030725;28;21022;-85
2020/12/14 06:45:13;;;;;;;6.23;5.27;;;1.80;96.60;;;;;;5028309;28;20545;-85
2020/12/14 06:47:49;;;;;;;7.03;5.83;;;1.80;96.70;;;;;;5027609;28;20252;-85
2020/12/14 06:50:32;;;;;;;6.03;5.40;;;1.90;96.60;;;;;;5027718;28;20205;-85
2020/12/14 06:53:00;;;;;;;7.90;5.03;;;1.90;96.50;;;;;;5038249;28;20607;-86
2020/12/14 06:55:50;;;;;;;7.33;5.63;;;1.90;96.30;;;;;;5031850;28;20221;-85
2020/12/14 06:58:31;;;;;;;7.03;5.60;;;1.80;96.20;;;;;;5023081;28;20244;-83
2020/12/14 07:00:58;;;;;;;6.57;5.57;;;2.10;97.90;;;;;;5030669;28;20248;-83
2020/12/14 07:03:38;;;;;;;8.97;5.87;;;2.20;97.10;;;;;;5036330;28;20234;-84
2020/12/14 07:06:05;;;;;;;6.93;5.40;;;2.20;96.20;;;;;;5033108;28;20213;-84
2020/12/14 07:11:15;;;;;;;8.07;5.07;;;2.00;95.50;;;;;;5032881;28;20213;-83
2020/12/14 07:13:43;;;;;;;5.97;5.37;;;1.90;95.90;;;;;;5033653;28;20260;-85
2020/12/14 07:16:11;;;;;;;6.30;5.43;;;1.80;95.90;;;;;;5035405;28;20305;-84
2020/12/14 07:18:39;;;;;;;7.40;5.27;;;2.00;97.10;;;;;;5030143;28;20233;-83
2020/12/14 07:21:10;;;;;;;8.20;5.90;;;1.80;96.40;;;;;;5036754;28;20206;-83
2020/12/14 07:23:38;;;;;;;6.17;5.57;;;1.60;96.40;;;;;;5040683;28;20228;-85
2020/12/14 07:26:05;;;;;;;9.10;6.43;;;1.60;97.00;;;;;;5034191;28;20216;-84
2020/12/14 07:28:44;;;;;;;6.53;5.33;;;1.70;97.00;;;;;;5040288;28;20220;-83
2020/12/14 07:31:12;;;;;;;6.53;5.43;;;1.70;97.10;;;;;;5029853;28;20217;-85
2020/12/14 07:33:40;;;;;;;15.80;6.20;;;1.80;97.40;;;;;;5034106;28;20249;-84
2020/12/14 07:36:09;;;;;;;8.83;5.30;;;1.90;97.60;;;;;;5030747;28;20565;-83
2020/12/14 07:38:47;;;;;;;6.97;5.50;;;2.00;97.10;;;;;;5032698;28;20227;-84
2020/12/14 07:41:13;;;;;;;11.10;6.47;;;2.00;96.60;;;;;;5034208;28;20209;-82
2020/12/14 07:43:48;;;;;;;6.73;5.43;;;2.30;98.20;;;;;;5033592;28;20232;-83
2020/12/14 07:46:33;;;;;;;13.97;6.23;;;2.40;96.50;;;;;;5034891;28;20292;-84
2020/12/14 07:49:05;;;;;;;6.97;5.57;;;2.60;97.40;;;;;;5031260;28;20287;-82
2020/12/14 07:51:33;;;;;;;7.87;5.93;;;2.50;95.70;;;;;;5029413;28;20206;-82
2020/12/14 07:54:05;;;;;;;15.17;6.73;;;2.50;95.90;;;;;;5030451;28;20227;-82
2020/12/14 07:56:31;;;;;;;7.33;6.07;;;2.60;97.20;;;;;;5030281;28;20570;-83
2020/12/14 07:58:59;;;;;;;7.47;5.70;;;2.70;96.30;;;;;;5028667;28;20249;-81
2020/12/14 08:01:25;;;;;;;7.87;6.30;;;2.70;95.40;;;;;;5031936;28;20592;-83
2020/12/14 08:04:00;;;;;;;6.90;5.93;;;2.70;95.50;;;;;;5030910;28;20213;-82
2020/12/14 08:06:28;;;;;;;6.50;5.67;;;3.00;95.80;;;;;;5030609;28;20209;-82
2020/12/14 08:08:54;;;;;;;7.63;5.70;;;3.00;94.90;;;;;;5030089;28;20211;-81
2020/12/14 08:11:21;;;;;;;9.00;6.00;;;3.10;94.70;;;;;;5029546;28;20207;-82
2020/12/14 08:13:50;;;;;;;6.70;5.03;;;3.30;95.60;;;;;;5031370;28;20227;-86
2020/12/14 08:16:19;;;;;;;5.53;4.77;;;3.40;94.40;;;;;;5030995;28;20577;-84
2020/12/14 08:18:47;;;;;;;7.57;5.77;;;3.60;94.80;;;;;;5033092;28;20257;-86
2020/12/14 08:21:35;;;;;;;5.20;4.70;;;3.80;94.60;;;;;;5032260;28;20214;-88
2020/12/14 08:24:09;;;;;;;6.83;5.03;;;3.90;92.70;;;;;;5029280;28;20250;-89
2020/12/14 08:26:39;;;;;;;6.43;4.87;;;4.10;93.00;;;;;;5027165;28;20245;-85
2020/12/14 08:29:06;;;;;;;5.57;4.53;;;4.20;92.20;;;;;;5030651;28;20198;-87
2020/12/14 08:31:32;;;;;;;6.23;4.53;;;4.20;91.90;;;;;;5027821;28;20203;-87
2020/12/14 08:33:59;;;;;;;8.33;4.23;;;4.40;92.30;;;;;;5028682;28;20588;-84
2020/12/14 08:36:26;;;;;;;6.17;4.53;;;4.50;92.10;;;;;;5029356;28;20206;-84
2020/12/14 08:38:53;;;;;;;5.07;3.97;;;4.40;91.40;;;;;;5028271;28;20265;-84
2020/12/14 08:41:22;;;;;;;5.43;4.10;;;4.50;91.20;;;;;;5029628;28;20199;-85
2020/12/14 08:43:53;;;;;;;6.60;4.23;;;4.40;91.20;;;;;;5031881;28;20210;-85
2020/12/14 08:46:27;;;;;;;8.83;4.20;;;4.70;91.00;;;;;;5030287;28;20645;-85
2020/12/14 08:48:55;;;;;;;4.63;3.80;;;5.40;90.40;;;;;;5031466;28;20599;-87
2020/12/14 08:51:23;;;;;;;4.20;3.50;;;5.90;87.80;;;;;;5038692;28;20213;-86
2020/12/14 08:53:52;;;;;;;6.47;4.03;;;6.70;83.20;;;;;;5039792;28;20507;-90
2020/12/14 08:56:20;;;;;;;6.80;3.75;;;7.50;79.00;;;;;;5044024;28;20293;-88
2020/12/14 08:58:49;;;;;;;7.47;3.80;;;8.40;75.60;;;;;;5040989;28;20481;-88
2020/12/14 09:01:15;;;;;;;5.50;3.25;;;9.30;72.10;;;;;;5047696;28;20270;-88
2020/12/14 09:03:50;;;;;;;5.28;3.78;;;10.00;61.80;;;;;;5047690;28;20222;-88
2020/12/14 09:06:30;;;;;;;6.43;3.30;;;10.50;60.40;;;;;;5039849;28;20280;-89
2020/12/14 09:09:03;;;;;;;4.13;3.40;;;10.20;54.90;;;;;;5041310;28;20226;-88
2020/12/14 09:11:35;;;;;;;5.07;3.47;;;10.30;57.20;;;;;;5044376;28;20209;-87
2020/12/14 09:14:04;;;;;;;7.18;3.25;;;11.00;55.20;;;;;;5040149;28;20336;-88
2020/12/14 09:16:30;;;;;;;3.95;3.50;;;11.70;51.70;;;;;;5030486;28;20195;-87
2020/12/14 09:18:57;;;;;;;4.25;3.20;;;12.30;49.40;;;;;;5034027;28;20205;-87
2020/12/14 09:21:24;;;;;;;4.47;3.20;;;13.30;46.90;;;;;;5042814;28;20199;-87
2020/12/14 09:24:14;;;;;;;3.70;3.40;;;14.30;44.50;;;;;;5037919;28;20210;-86
2020/12/14 09:26:42;;;;;;;3.15;2.85;;;13.60;42.80;;;;;;5032431;28;20230;-85
2020/12/14 09:29:09;;;;;;;3.97;3.30;;;13.80;43.00;;;;;;5030537;28;20202;-86
2020/12/14 09:31:35;;;;;;;4.55;3.08;;;14.20;40.90;;;;;;5032547;28;20213;-84
2020/12/14 09:34:02;;;;;;;3.45;3.13;;;13.80;41.00;;;;;;5035372;28;20261;-85
2020/12/14 09:36:28;;;;;;;3.45;3.10;;;13.00;43.10;;;;;;5034521;28;20206;-84
2020/12/14 09:38:55;;;;;;;6.22;2.90;;;14.30;41.10;;;;;;5034966;28;20214;-85
2020/12/14 09:41:22;;;;;;;3.85;3.00;;;15.00;40.50;;;;;;5037155;28;20245;-84
2020/12/14 09:43:50;;;;;;;5.07;3.13;;;15.50;38.50;;;;;;5041221;28;20210;-86
2020/12/14 09:46:16;;;;;;;3.60;3.22;;;14.30;39.50;;;;;;5034748;28;20203;-87
2020/12/14 09:48:42;;;;;;;4.28;3.30;;;12.80;43.00;;;;;;5035519;28;20227;-85
2020/12/14 09:51:09;;;;;;;3.45;3.15;;;12.40;45.20;;;;;;5036517;28;20210;-88
2020/12/14 09:53:35;;;;;;;3.88;3.05;;;11.50;48.10;;;;;;5029737;28;20248;-88
2020/12/14 09:56:01;;;;;;;3.05;2.72;;;10.80;47.60;;;;;;5026425;28;20214;-90
2020/12/14 09:58:29;;;;;;;3.00;2.70;;;10.30;49.80;;;;;;5023995;28;20221;-89
2020/12/14 10:00:56;;;;;;;3.30;3.00;;;9.80;52.20;;;;;;5028014;28;20225;-92
2020/12/14 10:03:23;;;;;;;3.47;2.53;;;9.70;54.80;;;;;;5029806;28;20245;-92
2020/12/14 10:05:49;;;;;;;5.65;2.58;;;8.90;57.30;;;;;;5033211;28;20206;-94
2020/12/14 10:08:16;;;;;;;2.55;2.10;;;8.80;60.60;;;;;;5043609;28;20312;-94
2020/12/14 10:10:42;;;;;;;3.72;2.50;;;8.80;59.60;;;;;;5042095;28;20222;-93
2020/12/14 10:13:09;;;;;;;3.30;2.22;;;8.50;61.30;;;;;;5032387;28;20757;-92
2020/12/14 10:15:35;;;;;;;2.75;2.40;;;8.20;65.10;;;;;;5031038;28;20224;-90
2020/12/14 10:18:03;;;;;;;2.90;2.63;;;8.50;66.30;;;;;;5030856;28;21068;-90
2020/12/14 10:20:30;;;;;;;4.00;3.13;;;8.10;66.40;;;;;;5029438;28;20198;-94
2020/12/14 10:22:56;;;;;;;4.05;2.45;;;7.90;68.50;;;;;;5021081;28;20295;-87
2020/12/14 10:25:24;;;;;;;2.45;2.25;;;8.30;68.90;;;;;;5039233;28;20241;-87
2020/12/14 10:27:51;;;;;;;4.15;2.53;;;8.50;64.40;;;;;;5036445;28;20241;-88
2020/12/14 10:30:17;;;;;;;3.03;2.47;;;8.50;63.50;;;;;;5038767;28;20202;-87
2020/12/14 10:32:44;;;;;;;4.20;2.20;;;8.70;63.80;;;;;;5038960;28;20290;-87
2020/12/14 10:35:14;;;;;;;4.05;2.17;;;8.80;60.90;;;;;;5044982;28;20258;-88
2020/12/14 10:38:24;;;;;;;2.83;2.35;;;9.50;59.10;;;;;;5042011;28;21728;-86
2020/12/14 10:43:38;;;;;;;2.70;2.50;;;9.40;57.60;;;;;;5036981;28;20226;-89
2020/12/14 10:46:05;;;;;;;4.45;2.40;;;9.70;56.70;;;;;;5028329;28;20236;-91
2020/12/14 10:48:31;;;;;;;4.20;2.67;;;10.80;53.10;;;;;;5032069;28;20737;-89
2020/12/14 10:50:59;;;;;;;3.22;2.53;;;12.10;48.70;;;;;;5027342;28;20198;-91
2020/12/14 10:53:25;;;;;;;7.20;3.00;;;12.00;49.80;;;;;;5032545;28;20235;-91
2020/12/14 10:55:52;;;;;;;3.10;2.80;;;12.10;48.70;;;;;;5033708;28;20227;-89
2020/12/14 10:58:18;;;;;;;2.80;2.60;;;12.00;48.00;;;;;;5035598;28;20317;-90
2020/12/14 11:00:45;;;;;;;3.25;2.95;;;11.90;48.50;;;;;;5030410;28;20219;-88
2020/12/14 11:03:11;;;;;;;3.20;2.90;;;12.00;48.60;;;;;;5036105;28;20226;-89
2020/12/14 11:05:38;;;;;;;4.80;2.90;;;11.80;48.40;;;;;;5033251;28;20199;-89
2020/12/14 11:08:05;;;;;;;3.50;2.92;;;11.10;50.00;;;;;;5020583;28;20225;-91
2020/12/14 11:10:31;;;;;;;2.83;2.53;;;10.60;52.90;;;;;;5032571;28;20202;-89
2020/12/14 11:12:58;;;;;;;3.10;2.80;;;10.30;54.70;;;;;;5030333;28;20234;-89
2020/12/14 11:15:26;;;;;;;4.22;3.00;;;9.90;56.50;;;;;;5029702;28;20659;-87
2020/12/14 11:17:53;;;;;;;3.38;3.08;;;9.50;58.50;;;;;;5034179;28;20226;-88
2020/12/14 11:20:21;;;;;;;3.25;2.78;;;9.00;60.60;;;;;;5028512;28;20194;-89
2020/12/14 11:22:47;;;;;;;3.35;3.00;;;8.90;68.70;;;;;;5022419;28;20333;-88
2020/12/14 11:25:17;;;;;;;3.30;3.00;;;8.70;66.90;;;;;;5033619;28;20722;-89
2020/12/14 11:27:43;;;;;;;5.88;3.33;;;8.40;69.20;;;;;;5028647;28;20233;-88
2020/12/14 11:30:09;;;;;;;3.65;3.17;;;8.10;70.00;;;;;;5029471;28;20199;-87
2020/12/14 11:32:36;;;;;;;4.53;3.00;;;8.10;73.00;;;;;;5031102;28;20230;-88
2020/12/14 11:35:02;;;;;;;3.70;2.95;;;8.20;73.00;;;;;;5034300;28;20230;-89
2020/12/14 11:37:29;;;;;;;5.05;3.05;;;8.30;73.20;;;;;;5025687;28;20233;-90
2020/12/14 11:39:55;;;;;;;4.28;3.67;;;8.50;72.50;;;;;;5034107;28;20293;-90
2020/12/14 11:42:23;;;;;;;12.32;8.10;;;8.60;71.60;;;;;;5032185;28;20309;-90
2020/12/14 11:44:50;;;;;;;3.25;2.92;;;8.40;73.30;;;;;;5035370;28;20971;-88
2020/12/14 11:47:16;;;;;;;4.55;3.40;;;8.30;71.60;;;;;;5033296;28;20237;-88
2020/12/14 11:49:43;;;;;;;4.55;3.20;;;8.40;70.70;;;;;;5035893;28;20213;-88
2020/12/14 11:52:10;;;;;;;6.10;3.10;;;8.30;71.20;;;;;;5038100;28;20241;-90
2020/12/14 11:54:36;;;;;;;3.65;3.33;;;8.60;68.20;;;;;;5033767;28;20233;-89
2020/12/14 11:57:03;;;;;;;5.65;3.20;;;8.80;68.40;;;;;;5033808;28;20313;-87
2020/12/14 11:59:30;;;;;;;3.90;3.15;;;8.90;67.20;;;;;;5035206;28;20722;-90
2020/12/14 12:01:57;;;;;;;4.35;2.70;;;8.80;64.30;;;;;;5031667;28;20222;-89
2020/12/14 12:04:23;;;;;;;3.00;2.70;;;8.50;67.90;;;;;;5032445;28;20206;-89
2020/12/14 12:06:50;;;;;;;2.75;2.40;;;8.40;68.50;;;;;;5037500;28;20690;-88
2020/12/14 12:09:16;;;;;;;3.83;2.78;;;8.30;69.60;;;;;;5038966;28;20256;-88
2020/12/14 12:11:43;;;;;;;3.08;2.60;;;8.20;69.80;;;;;;5038303;28;20313;-87
2020/12/14 12:14:09;;;;;;;4.22;3.13;;;8.00;72.90;;;;;;5032805;28;20226;-87
2020/12/14 12:16:36;;;;;;;3.05;2.75;;;7.90;72.80;;;;;;5030903;28;20203;-87
2020/12/14 12:19:03;;;;;;;3.03;2.67;;;7.90;74.30;;;;;;5031211;28;20208;-86
2020/12/14 12:21:29;;;;;;;3.72;2.78;;;7.90;72.70;;;;;;5029722;28;20894;-91
2020/12/14 12:24:01;;;;;;;3.45;2.90;;;7.80;72.60;;;;;;5028927;28;20205;-87
2020/12/14 12:26:28;;;;;;;3.53;3.13;;;7.90;74.30;;;;;;5027837;28;20739;-87
2020/12/14 12:28:54;;;;;;;8.05;2.92;;;7.80;72.70;;;;;;5028173;28;20206;-87
2020/12/14 12:31:21;;;;;;;4.53;3.07;;;7.80;75.10;;;;;;5031179;28;20206;-84
2020/12/14 12:33:48;;;;;;;4.18;2.97;;;7.70;75.80;;;;;;5020259;28;20200;-89
2020/12/14 12:36:14;;;;;;;3.43;2.77;;;7.70;76.00;;;;;;5029746;28;20772;-86
2020/12/14 12:38:41;;;;;;;4.82;3.20;;;7.90;75.60;;;;;;5033552;28;20218;-88
2020/12/14 12:41:08;;;;;;;4.90;2.88;;;8.00;75.20;;;;;;5034631;28;20206;-89
2020/12/14 12:43:34;;;;;;;3.47;3.00;;;7.90;75.80;;;;;;5026089;28;20218;-88
2020/12/14 12:46:00;;;;;;;3.47;3.17;;;7.70;76.00;;;;;;5029925;28;20207;-88
2020/12/14 12:48:27;;;;;;;4.28;3.05;;;7.70;77.10;;;;;;5034315;28;20245;-88
2020/12/14 12:50:54;;;;;;;3.20;2.80;;;7.70;78.10;;;;;;5035545;28;20607;-89
2020/12/14 12:53:22;;;;;;;3.55;3.05;;;7.90;77.00;;;;;;5030480;28;20223;-87
2020/12/14 12:55:49;;;;;;;5.40;2.97;;;7.90;76.30;;;;;;5035444;28;20214;-87
2020/12/14 12:58:16;;;;;;;4.57;2.90;;;8.20;75.70;;;;;;5037963;28;20851;-87
2020/12/14 13:00:42;;;;;;;2.97;2.70;;;8.10;75.50;;;;;;5034089;28;20301;-87
2020/12/14 13:03:09;;;;;;;5.35;2.97;;;8.20;75.00;;;;;;5039248;28;20226;-88